createdAt,value
2022-10-05T00:03:04.630Z,0.0
2022-10-05T00:08:01.030Z,0.0
2022-10-05T00:13:17.395Z,0.0
2022-10-05T00:18:27.780Z,0.0
2022-10-05T00:23:31.758Z,0.0
2022-10-05T00:28:38.141Z,0.0
2022-10-05T00:34:06.112Z,0.0
2022-10-05T00:38:53.582Z,0.0
2022-10-05T00:43:59.944Z,0.0
2022-10-05T00:49:06.327Z,0.0
2022-10-05T00:54:18.564Z,0.0
2022-10-05T00:59:24.746Z,0.0
2022-10-05T01:04:27.102Z,0.0
2022-10-05T01:09:33.694Z,0.0
2022-10-05T01:14:40.098Z,0.0
2022-10-05T01:19:50.511Z,0.0
2022-10-05T01:24:54.443Z,0.0
2022-10-05T01:30:00.788Z,0.0
2022-10-05T01:35:08.738Z,0.0
2022-10-05T01:40:19.152Z,0.0
2022-10-05T01:45:21.486Z,0.0
2022-10-05T01:50:27.956Z,0.0
2022-10-05T01:55:35.993Z,0.0
2022-10-05T02:00:42.344Z,0.0
2022-10-05T02:05:48.685Z,0.0
2022-10-05T02:10:55.173Z,0.0
2022-10-05T02:16:27.254Z,0.0
2022-10-05T02:21:09.490Z,0.0
2022-10-05T02:26:15.897Z,0.0
2022-10-05T02:31:22.390Z,0.0
2022-10-05T02:36:30.265Z,0.0
2022-10-05T02:41:40.669Z,0.0
2022-10-05T02:46:44.990Z,0.0
2022-10-05T02:51:51.037Z,0.0
2022-10-05T02:57:01.469Z,0.0
2022-10-05T03:02:03.927Z,0.0
2022-10-05T03:07:10.396Z,0.0
2022-10-05T03:12:20.847Z,0.0
2022-10-05T03:17:26.748Z,0.0
2022-10-05T03:27:40.087Z,0.0
2022-10-05T03:32:51.447Z,0.0
2022-10-05T03:37:53.918Z,0.0
2022-10-05T03:43:01.890Z,0.0
2022-10-05T03:48:08.278Z,0.0
2022-10-05T03:53:18.666Z,0.0
2022-10-05T03:58:25.059Z,0.0
2022-10-05T04:03:28.998Z,0.0
2022-10-05T04:08:35.359Z,0.0
2022-10-05T04:13:41.759Z,0.0
2022-10-05T04:18:52.278Z,0.0
2022-10-05T04:23:56.251Z,0.0
2022-10-05T04:29:02.682Z,0.0
2022-10-05T04:34:08.990Z,0.0
2022-10-05T04:39:15.574Z,0.0
2022-10-05T04:44:27.560Z,0.0
2022-10-05T04:49:29.902Z,0.0
2022-10-05T04:54:36.283Z,0.0
2022-10-05T04:59:42.681Z,0.0
2022-10-05T05:04:52.041Z,0.0
2022-10-05T05:09:57.047Z,0.0
2022-10-05T05:15:07.011Z,0.0
2022-10-05T05:20:13.385Z,0.0
2022-10-05T05:25:19.772Z,0.0
2022-10-05T05:30:30.200Z,0.0
2022-10-05T05:35:34.098Z,0.0
2022-10-05T05:40:44.468Z,0.0
2022-10-05T05:46:12.568Z,5.0
2022-10-05T05:50:58.782Z,10.0
2022-10-05T05:56:01.155Z,15.0
2022-10-05T06:01:16.290Z,15.0
2022-10-05T06:06:15.588Z,20.0
2022-10-05T06:11:21.911Z,25.0
2022-10-05T06:16:30.039Z,35.0
2022-10-05T06:21:40.272Z,45.0
2022-10-05T06:26:42.613Z,55.0
2022-10-05T06:31:49.055Z,55.0
2022-10-05T06:36:56.975Z,55.0
2022-10-05T06:42:07.341Z,70.0
2022-10-05T06:47:11.289Z,90.0
2022-10-05T06:52:17.786Z,90.0
2022-10-05T06:57:24.116Z,70.0
2022-10-05T07:02:30.557Z,55.0
2022-10-05T07:07:38.471Z,50.0
2022-10-05T07:12:44.811Z,45.0
2022-10-05T07:17:51.175Z,40.0
2022-10-05T07:22:59.160Z,45.0
2022-10-05T07:28:09.597Z,45.0
2022-10-05T07:33:13.469Z,50.0
2022-10-05T07:38:23.876Z,55.0
2022-10-05T07:43:32.045Z,65.0
2022-10-05T07:48:32.890Z,65.0
2022-10-05T07:53:39.404Z,80.0
2022-10-05T07:58:49.752Z,80.0
2022-10-05T08:03:53.686Z,95.0
2022-10-05T08:09:04.080Z,95.0
2022-10-05T08:14:06.429Z,100.0
2022-10-05T08:19:12.830Z,105.0
2022-10-05T08:24:19.240Z,110.0
2022-10-05T08:29:25.711Z,120.0
2022-10-05T08:34:32.208Z,135.0
2022-10-05T08:39:28.589Z,155.0
2022-10-05T08:44:44.967Z,190.0
2022-10-05T08:49:51.347Z,185.0
2022-10-05T08:54:59.327Z,180.0
2022-10-05T09:00:09.683Z,140.0
2022-10-05T09:05:16.052Z,240.0
2022-10-05T09:10:18.603Z,270.0
2022-10-05T09:15:26.898Z,295.0
2022-10-05T09:20:22.848Z,405.0
2022-10-05T09:26:04.893Z,475.0
2022-10-05T09:30:47.293Z,710.0
2022-10-05T09:35:57.569Z,785.0
2022-10-05T09:40:59.946Z,835.0
2022-10-05T09:46:08.056Z,580.0
2022-10-05T09:51:14.340Z,730.0
2022-10-05T09:56:20.768Z,820.0
2022-10-05T10:01:34.014Z,925.0
2022-10-05T10:06:38.047Z,1125.0
2022-10-05T10:11:41.416Z,2600.0
2022-10-05T10:16:53.487Z,1395.0
2022-10-05T10:21:55.919Z,2350.0
2022-10-05T10:27:02.398Z,2915.0
2022-10-05T10:32:09.060Z,2245.0
2022-10-05T10:37:15.381Z,2350.0
2022-10-05T10:42:26.269Z,2365.0
2022-10-05T10:47:29.720Z,2670.0
2022-10-05T10:57:41.466Z,2540.0
2022-10-05T11:02:48.916Z,2765.0
2022-10-05T11:07:55.327Z,2705.0
2022-10-05T11:13:25.860Z,3160.0
2022-10-05T11:18:08.333Z,2825.0
2022-10-05T11:23:18.700Z,2665.0
2022-10-05T11:28:25.117Z,2945.0
2022-10-05T11:33:29.045Z,940.0
2022-10-05T11:38:35.477Z,1420.0
2022-10-05T11:43:31.829Z,2205.0
2022-10-05T11:48:48.367Z,2890.0
2022-10-05T11:53:56.316Z,690.0
2022-10-05T11:59:02.712Z,1730.0
2022-10-05T12:04:09.257Z,575.0
2022-10-05T12:09:15.455Z,2705.0
2022-10-05T12:14:23.405Z,665.0
2022-10-05T12:19:29.860Z,1855.0
2022-10-05T12:24:37.819Z,430.0
2022-10-05T12:29:44.188Z,670.0
2022-10-05T12:35:01.064Z,2455.0
2022-10-05T12:39:56.939Z,2540.0
2022-10-05T12:45:08.911Z,1040.0
2022-10-05T12:50:11.349Z,480.0
2022-10-05T12:55:17.799Z,410.0
2022-10-05T13:00:24.174Z,475.0
2022-10-05T13:06:00.307Z,450.0
2022-10-05T13:10:38.482Z,2410.0
2022-10-05T13:15:48.865Z,465.0
2022-10-05T13:20:51.256Z,1645.0
2022-10-05T13:26:23.282Z,550.0
2022-10-05T13:31:05.768Z,455.0
2022-10-05T13:36:16.311Z,2620.0
2022-10-05T13:41:22.432Z,2000.0
2022-10-05T13:46:24.950Z,520.0
2022-10-05T13:51:31.307Z,1070.0
2022-10-05T13:56:37.808Z,2020.0
2022-10-05T14:01:44.591Z,2040.0
2022-10-05T14:06:50.681Z,1975.0
2022-10-05T14:12:01.071Z,1975.0
2022-10-05T14:17:05.041Z,1800.0
2022-10-05T14:22:11.394Z,1670.0
2022-10-05T14:27:19.339Z,1685.0
2022-10-05T14:32:25.904Z,1325.0
2022-10-05T14:37:32.260Z,305.0
2022-10-05T14:42:28.615Z,880.0
2022-10-05T14:47:46.620Z,255.0
2022-10-05T14:52:52.098Z,230.0
2022-10-05T14:58:00.926Z,215.0
2022-10-05T15:03:07.487Z,220.0
2022-10-05T15:08:13.945Z,255.0
2022-10-05T15:13:20.416Z,185.0
2022-10-05T15:18:31.074Z,160.0
2022-10-05T15:23:33.260Z,150.0
2022-10-05T15:28:39.651Z,120.0
2022-10-05T15:33:47.609Z,125.0
2022-10-05T15:38:58.096Z,115.0
2022-10-05T15:44:34.428Z,100.0
2022-10-05T15:49:31.914Z,90.0
2022-10-05T15:54:47.200Z,90.0
2022-10-05T16:00:08.676Z,95.0
2022-10-05T16:04:51.126Z,60.0
2022-10-05T16:10:07.510Z,50.0
2022-10-05T16:15:13.894Z,60.0
2022-10-05T16:20:44.350Z,50.0
2022-10-05T16:25:26.657Z,45.0
2022-10-05T16:30:33.164Z,30.0
2022-10-05T16:35:39.423Z,25.0
2022-10-05T16:40:46.018Z,15.0
2022-10-05T16:45:52.324Z,15.0
2022-10-05T16:50:58.717Z,10.0
2022-10-05T16:56:05.230Z,5.0
2022-10-05T17:01:01.776Z,0.0
2022-10-05T17:06:07.954Z,0.0
2022-10-05T17:11:16.979Z,0.0
2022-10-05T17:16:50.873Z,0.0
2022-10-05T17:21:37.325Z,0.0
2022-10-05T17:26:43.730Z,0.0
2022-10-05T17:31:50.092Z,0.0
2022-10-05T17:36:56.480Z,0.0
2022-10-05T17:42:02.991Z,0.0
2022-10-05T17:47:09.485Z,0.0
2022-10-05T17:52:15.878Z,0.0
2022-10-05T17:57:36.374Z,0.0
2022-10-05T18:07:35.694Z,0.0
2022-10-05T18:12:42.175Z,0.0
2022-10-05T18:17:52.503Z,0.0
2022-10-05T18:22:54.862Z,0.0
2022-10-05T18:28:01.422Z,0.0
2022-10-05T18:33:07.630Z,0.0
2022-10-05T18:39:14.246Z,0.0
2022-10-05T18:44:32.879Z,0.0
2022-10-05T18:48:16.980Z,0.0
2022-10-05T18:53:37.398Z,0.0
2022-10-05T18:58:39.907Z,0.0
2022-10-05T19:03:46.305Z,0.0
2022-10-05T19:08:52.751Z,0.0
2022-10-05T19:13:59.133Z,0.0
2022-10-05T19:19:05.532Z,0.0
2022-10-05T19:24:35.932Z,0.0
2022-10-05T19:29:18.284Z,0.0
2022-10-05T19:34:24.707Z,0.0
2022-10-05T19:39:35.072Z,0.0
2022-10-05T19:45:01.569Z,0.0
2022-10-05T19:49:33.874Z,0.0
2022-10-05T19:54:50.210Z,0.0
2022-10-05T19:59:56.706Z,0.0
2022-10-05T20:06:03.306Z,0.0
2022-10-05T20:10:09.642Z,0.0
2022-10-05T20:15:53.226Z,0.0
2022-10-05T20:21:00.599Z,0.0
2022-10-05T20:25:57.027Z,0.0
2022-10-05T20:31:13.454Z,0.0
2022-10-05T20:40:04.412Z,0.0
2022-10-05T20:43:11.619Z,0.0
2022-10-05T20:47:57.979Z,0.0
2022-10-05T20:52:40.308Z,0.0
2022-10-05T20:58:20.796Z,0.0
2022-10-05T21:03:28.174Z,0.0
2022-10-05T21:08:34.585Z,0.0
2022-10-05T21:14:05.779Z,0.0
2022-10-05T21:18:37.575Z,0.0
2022-10-05T21:25:06.135Z,0.0
2022-10-05T21:29:00.562Z,0.0
2022-10-05T21:34:06.961Z,0.0
2022-10-05T21:39:13.345Z,0.0
2022-10-05T21:44:19.717Z,0.0
2022-10-05T21:49:26.315Z,0.0
2022-10-05T21:54:52.738Z,0.0
2022-10-05T21:59:59.118Z,0.0
2022-10-05T22:04:45.491Z,0.0
2022-10-05T22:09:51.856Z,0.0
2022-10-05T22:14:58.231Z,0.0
2022-10-05T22:20:04.743Z,0.0
2022-10-05T22:25:11.217Z,0.0
2022-10-05T22:30:17.703Z,0.0
2022-10-05T22:35:14.070Z,0.0
2022-10-05T22:40:20.447Z,0.0
2022-10-05T22:45:36.897Z,0.0
2022-10-05T22:50:43.244Z,0.0
2022-10-05T22:56:09.639Z,0.0
2022-10-05T23:00:58.358Z,0.0
2022-10-05T23:06:26.516Z,0.0
2022-10-05T23:11:08.774Z,0.0
2022-10-05T23:16:29.283Z,0.0
2022-10-05T23:22:33.713Z,0.0
2022-10-05T23:26:27.927Z,0.0
2022-10-05T23:31:24.291Z,0.0
2022-10-05T23:36:40.725Z,0.0
2022-10-05T23:41:47.183Z,0.0
2022-10-05T23:47:07.597Z,0.0
2022-10-05T23:53:12.125Z,0.0
2022-10-05T23:57:34.436Z,0.0
